Time;durP1;ratioP1;P1;durP2;ratioP2;P2;SDS_P1;SDS_P2;PMS_P1;PMS_P2;Temp;Humidity;BMP_temperature;BMP_pressure;BME280_temperature;BME280_humidity;BME280_pressure;Samples;Min_cycle;Max_cycle;Signal;HPM_P1;HPM_P2
2022/03/08 00:01:09;;;;;;;5.75;2.10;;;;;;;0.87;61.71;98988.53;5030091;28;20037;-38
2022/03/08 00:03:35;;;;;;;6.10;2.70;;;;;;;0.82;61.40;98991.13;5046076;28;20041;-37
2022/03/08 00:06:01;;;;;;;4.53;2.30;;;;;;;0.92;61.48;99005.56;5029743;28;20049;-37
2022/03/08 00:08:26;;;;;;;4.35;2.50;;;;;;;0.89;61.04;99012.41;5030153;28;20103;-38
2022/03/08 00:10:52;;;;;;;5.60;2.80;;;;;;;0.84;61.19;99010.72;5027890;28;20052;-36
2022/03/08 00:13:18;;;;;;;5.53;2.60;;;;;;;0.79;60.79;99007.34;5029783;28;20527;-36
2022/03/08 00:15:44;;;;;;;5.65;2.80;;;;;;;0.78;61.32;99015.88;5029172;28;20053;-37
2022/03/08 00:18:10;;;;;;;4.82;2.47;;;;;;;0.76;61.01;99019.31;5032150;28;20041;-37
2022/03/08 00:20:36;;;;;;;4.85;2.40;;;;;;;0.74;61.48;99015.88;5034088;28;20045;-37
2022/03/08 00:23:02;;;;;;;4.35;2.22;;;;;;;0.70;61.45;99021.88;5032977;28;20048;-36
2022/03/08 00:25:28;;;;;;;4.72;2.70;;;;;;;0.61;61.28;99016.84;5033068;28;20052;-36
2022/03/08 00:27:54;;;;;;;5.07;2.30;;;;;;;0.65;61.75;99021.06;5034279;28;20077;-36
2022/03/08 00:30:22;;;;;;;6.25;2.78;;;;;;;0.62;61.38;99032.19;5033519;28;20041;-37
2022/03/08 00:32:49;;;;;;;5.93;3.00;;;;;;;0.62;61.24;99027.06;5034355;28;20033;-37
2022/03/08 00:35:16;;;;;;;5.60;2.63;;;;;;;0.60;61.33;99033.88;5032306;28;20037;-36
2022/03/08 00:37:41;;;;;;;6.43;2.83;;;;;;;0.56;60.96;99026.25;5032788;28;20106;-38
2022/03/08 00:40:09;;;;;;;6.53;2.47;;;;;;;0.46;60.73;99030.56;5015745;28;20038;-38
2022/03/08 00:42:36;;;;;;;4.95;2.38;;;;;;;0.47;61.10;99027.16;5029370;28;20050;-38
2022/03/08 00:45:03;;;;;;;4.40;2.38;;;;;;;0.43;60.87;99030.53;5013021;28;20038;-38
2022/03/08 00:47:29;;;;;;;4.97;2.67;;;;;;;0.50;60.71;99037.34;5024540;28;20099;-38
2022/03/08 00:49:55;;;;;;;6.40;2.33;;;;;;;0.46;60.62;99040.78;5033568;28;20033;-36
2022/03/08 00:52:21;;;;;;;5.85;2.42;;;;;;;0.45;60.71;99048.44;5033796;28;20091;-37
2022/03/08 00:54:46;;;;;;;4.32;2.13;;;;;;;0.46;60.36;99038.22;5015921;28;20077;-37
2022/03/08 00:57:14;;;;;;;5.05;2.83;;;;;;;0.42;60.11;99037.38;5033642;28;20037;-37
2022/03/08 00:59:39;;;;;;;5.25;2.58;;;;;;;0.41;60.38;99047.63;5033151;28;20432;-36
2022/03/08 01:02:05;;;;;;;5.45;3.30;;;;;;;0.42;60.33;99041.63;5032272;28;20127;-37
2022/03/08 01:04:31;;;;;;;11.88;3.67;;;;;;;0.39;60.41;99044.19;5032440;28;20045;-37
2022/03/08 01:06:57;;;;;;;5.47;2.30;;;;;;;0.40;60.17;99046.75;5015509;28;20054;-37
2022/03/08 01:09:23;;;;;;;4.35;2.45;;;;;;;0.37;60.27;99044.19;5033389;28;20045;-37
2022/03/08 01:11:49;;;;;;;6.05;2.55;;;;;;;0.36;60.28;99047.63;5015384;28;20120;-37
2022/03/08 01:14:15;;;;;;;5.65;2.17;;;;;;;0.36;60.23;99046.78;5032882;28;20140;-38
2022/03/08 01:16:40;;;;;;;7.03;3.08;;;;;;;0.34;60.59;99051.03;5032691;28;20033;-36
2022/03/08 01:19:07;;;;;;;6.70;3.38;;;;;;;0.31;60.85;99049.38;5033254;28;20060;-37
2022/03/08 01:21:36;;;;;;;5.18;2.67;;;;;;;0.28;61.02;99051.06;5031334;28;20486;-37
2022/03/08 01:24:03;;;;;;;5.88;3.13;;;;;;;0.27;60.58;99055.31;5033049;28;20427;-36
2022/03/08 01:26:29;;;;;;;6.18;2.50;;;;;;;0.17;60.53;99040.88;5032969;28;20037;-36
2022/03/08 01:28:56;;;;;;;5.43;2.80;;;;;;;0.23;60.72;99060.44;5032944;28;20091;-37
2022/03/08 01:31:22;;;;;;;6.07;3.40;;;;;;;0.22;60.54;99058.75;5032952;28;20033;-37
2022/03/08 01:33:50;;;;;;;7.18;3.63;;;;;;;0.21;60.65;99063.00;5032793;28;20397;-38
2022/03/08 01:36:17;;;;;;;8.50;3.30;;;;;;;0.21;60.83;99065.56;5032630;28;20037;-38
2022/03/08 01:38:42;;;;;;;6.70;3.38;;;;;;;0.21;60.91;99063.00;5032813;28;20125;-37
2022/03/08 01:41:08;;;;;;;9.82;3.55;;;;;;;0.10;61.03;99051.13;5032642;28;20137;-37
2022/03/08 01:43:34;;;;;;;6.85;3.47;;;;;;;0.20;60.92;99070.69;5031681;28;20174;-37
2022/03/08 01:46:00;;;;;;;5.85;3.22;;;;;;;0.18;60.98;99064.72;5032559;28;20041;-36
2022/03/08 01:48:26;;;;;;;7.20;3.80;;;;;;;0.17;60.90;99066.44;5033146;28;20060;-38
2022/03/08 01:50:51;;;;;;;8.23;3.30;;;;;;;0.18;60.65;99068.13;5030491;28;20045;-36
2022/03/08 01:53:17;;;;;;;5.47;3.17;;;;;;;0.14;60.35;99074.13;5032626;28;20475;-37
2022/03/08 01:55:43;;;;;;;8.90;3.42;;;;;;;0.11;60.46;99076.66;5050362;28;20049;-38
2022/03/08 01:58:09;;;;;;;7.85;3.85;;;;;;;0.10;60.71;99069.88;5064840;28;20512;-37
2022/03/08 02:00:35;;;;;;;5.50;2.72;;;;;;;0.11;60.76;99079.22;5031617;28;20068;-38
2022/03/08 02:03:01;;;;;;;6.00;3.17;;;;;;;0.08;60.88;99080.94;5032206;28;20432;-37
2022/03/08 02:05:27;;;;;;;6.22;3.08;;;;;;;0.07;60.78;99084.34;5032267;28;20194;-37
2022/03/08 02:07:54;;;;;;;5.78;3.10;;;;;;;0.07;60.65;99079.22;5032455;28;20555;-38
2022/03/08 02:10:19;;;;;;;7.70;3.35;;;;;;;0.07;60.95;99094.56;5020240;28;20123;-37
2022/03/08 02:12:45;;;;;;;5.65;2.70;;;;;;;0.06;60.96;99095.41;5027191;28;20129;-37
2022/03/08 02:15:12;;;;;;;5.05;2.80;;;;;;;0.04;60.59;99087.78;5031486;28;20505;-37
2022/03/08 02:17:38;;;;;;;7.10;3.08;;;;;;;-0.01;60.65;99092.03;5032430;28;20049;-38
2022/03/08 02:20:04;;;;;;;6.70;3.53;;;;;;;-0.03;61.04;99088.63;5032055;28;20045;-37
2022/03/08 02:22:30;;;;;;;5.50;2.90;;;;;;;-0.09;60.94;99081.81;5031780;28;20048;-37
2022/03/08 02:24:56;;;;;;;6.32;3.20;;;;;;;-0.03;61.21;99101.41;5031847;28;20049;-36
2022/03/08 02:27:21;;;;;;;5.15;2.67;;;;;;;-0.03;60.96;99106.50;5031484;28;20433;-38
2022/03/08 02:29:48;;;;;;;5.88;3.10;;;;;;;-0.02;60.99;99110.78;5030608;28;20037;-38
2022/03/08 02:32:13;;;;;;;5.78;3.05;;;;;;;-0.02;61.02;99108.22;5031604;28;20402;-37
2022/03/08 02:34:39;;;;;;;8.20;3.13;;;;;;;-0.03;61.03;99119.28;5030996;28;20049;-37
2022/03/08 02:37:11;;;;;;;5.93;2.78;;;;;;;-0.06;60.54;99116.75;5030346;28;20037;-37
2022/03/08 02:39:38;;;;;;;6.72;3.20;;;;;;;-0.08;60.95;99115.88;5030190;28;20068;-38
2022/03/08 02:42:05;;;;;;;6.75;3.40;;;;;;;-0.06;60.58;99125.25;5030949;28;20084;-37
2022/03/08 02:44:31;;;;;;;6.80;2.85;;;;;;;-0.04;60.73;99120.13;5031871;28;20128;-38
2022/03/08 02:47:00;;;;;;;6.47;3.03;;;;;;;-0.03;60.71;99130.34;5031611;28;20351;-38
2022/03/08 02:49:26;;;;;;;6.93;3.17;;;;;;;-0.04;60.72;99135.47;5031442;28;20045;-38
2022/03/08 02:51:51;;;;;;;7.82;3.28;;;;;;;-0.16;60.51;99113.31;5031321;28;20402;-36
2022/03/08 02:54:17;;;;;;;5.72;2.83;;;;;;;-0.07;60.18;99132.91;5031439;28;20098;-37
2022/03/08 02:56:43;;;;;;;6.00;3.00;;;;;;;-0.11;60.52;99144.00;5029153;28;20057;-38
2022/03/08 02:59:09;;;;;;;5.30;2.78;;;;;;;-0.11;60.40;99141.44;5031448;28;20045;-37
2022/03/08 03:01:35;;;;;;;8.23;3.33;;;;;;;-0.11;60.55;99149.09;5029590;28;20175;-39
2022/03/08 03:04:00;;;;;;;7.30;3.10;;;;;;;-0.12;60.31;99152.50;5030511;28;20069;-38
2022/03/08 03:06:26;;;;;;;5.80;2.92;;;;;;;-0.23;60.63;99134.63;5029366;28;20068;-38
2022/03/08 03:08:52;;;;;;;8.05;3.05;;;;;;;-0.17;60.64;99147.41;5031135;28;20041;-38
2022/03/08 03:11:18;;;;;;;6.97;3.75;;;;;;;-0.15;60.51;99150.78;5030723;28;20041;-37
2022/03/08 03:13:43;;;;;;;5.45;2.95;;;;;;;-0.15;60.54;99155.91;5031296;28;20394;-38
2022/03/08 03:16:09;;;;;;;6.28;3.10;;;;;;;-0.34;60.31;99132.91;5030410;28;20036;-37
2022/03/08 03:18:34;;;;;;;6.70;2.83;;;;;;;-0.20;60.78;99154.19;5029954;28;20044;-37
2022/03/08 03:21:00;;;;;;;8.75;3.15;;;;;;;-0.20;60.96;99161.84;5030982;28;20103;-37
2022/03/08 03:23:26;;;;;;;7.20;3.42;;;;;;;-0.20;60.63;99166.97;5030121;28;20041;-38
2022/03/08 03:25:52;;;;;;;6.93;3.22;;;;;;;-0.21;60.75;99171.22;5029526;28;20059;-38
2022/03/08 03:28:17;;;;;;;7.93;3.30;;;;;;;-0.23;61.45;99174.63;5029640;28;20582;-37
2022/03/08 03:30:43;;;;;;;6.10;3.45;;;;;;;-0.22;61.50;99182.31;5029640;28;20063;-37
2022/03/08 03:33:08;;;;;;;5.43;3.25;;;;;;;-0.21;61.28;99180.63;5030861;28;20531;-37
2022/03/08 03:35:34;;;;;;;5.85;3.30;;;;;;;-0.21;61.07;99180.63;5030621;28;20083;-37
2022/03/08 03:38:00;;;;;;;7.53;3.53;;;;;;;-0.26;61.32;99185.69;5028781;28;20100;-37
2022/03/08 03:40:26;;;;;;;6.57;3.08;;;;;;;-0.25;61.46;99195.06;5030537;28;20049;-37
2022/03/08 03:42:51;;;;;;;7.28;4.03;;;;;;;-0.26;61.22;99185.69;5030781;28;20050;-37
2022/03/08 03:45:17;;;;;;;5.30;3.10;;;;;;;-0.23;61.17;99192.53;5030533;28;21524;-37
2022/03/08 03:47:43;;;;;;;8.57;3.22;;;;;;;-0.22;61.07;99194.22;5030503;28;20588;-37
2022/03/08 03:50:09;;;;;;;6.68;3.45;;;;;;;-0.24;60.91;99191.66;5030822;28;20428;-37
2022/03/08 03:52:35;;;;;;;5.60;3.35;;;;;;;-0.22;61.11;99187.41;5028927;28;20040;-37
2022/03/08 03:55:02;;;;;;;6.72;3.17;;;;;;;-0.26;60.81;99183.13;5030235;28;20076;-37
2022/03/08 03:57:28;;;;;;;6.65;3.83;;;;;;;-0.20;60.85;99198.47;5029096;28;20037;-37
2022/03/08 03:59:54;;;;;;;8.43;3.58;;;;;;;-0.22;61.24;99195.09;5028661;28;20110;-36
2022/03/08 04:02:19;;;;;;;6.38;3.17;;;;;;;-0.30;60.97;99186.53;5031980;28;20437;-37
2022/03/08 04:04:45;;;;;;;9.48;3.85;;;;;;;-0.20;60.92;99210.38;5030113;28;20041;-37
2022/03/08 04:07:11;;;;;;;6.50;3.78;;;;;;;-0.18;61.07;99201.03;5030031;28;20107;-37
2022/03/08 04:09:37;;;;;;;6.65;3.33;;;;;;;-0.17;60.92;99206.16;5030031;28;20564;-38
2022/03/08 04:12:03;;;;;;;8.35;3.25;;;;;;;-0.15;61.02;99211.25;5030425;28;20120;-38
2022/03/08 04:14:29;;;;;;;7.03;4.05;;;;;;;-0.17;60.89;99212.97;5029900;28;20061;-39
2022/03/08 04:16:54;;;;;;;6.38;3.40;;;;;;;-0.19;61.24;99222.31;5030593;28;20124;-37
2022/03/08 04:19:20;;;;;;;8.75;3.75;;;;;;;-0.17;61.14;99215.53;5030210;28;20041;-38
2022/03/08 04:21:46;;;;;;;5.55;3.40;;;;;;;-0.14;60.78;99229.13;5051079;28;20073;-38
2022/03/08 04:24:11;;;;;;;6.20;3.25;;;;;;;-0.12;60.56;99224.88;5028598;28;20079;-38
2022/03/08 04:26:38;;;;;;;6.97;3.30;;;;;;;-0.11;60.69;99223.19;5028743;28;20041;-37
2022/03/08 04:29:03;;;;;;;8.57;3.65;;;;;;;-0.23;60.13;99205.28;5016540;28;20053;-37
2022/03/08 04:31:29;;;;;;;6.97;3.10;;;;;;;-0.12;60.55;99235.13;5015866;28;20038;-38
2022/03/08 04:33:55;;;;;;;6.30;3.25;;;;;;;-0.16;60.14;99220.59;5029152;28;20037;-37
2022/03/08 04:36:21;;;;;;;6.15;3.13;;;;;;;-0.11;60.26;99235.97;5029643;28;20424;-37
2022/03/08 04:38:46;;;;;;;7.68;3.42;;;;;;;-0.10;60.10;99242.75;5029437;28;20130;-37
2022/03/08 04:41:12;;;;;;;6.95;3.47;;;;;;;-0.07;60.43;99246.19;5030120;28;20513;-38
2022/03/08 04:43:37;;;;;;;7.38;3.47;;;;;;;-0.10;60.01;99246.16;5029102;28;20060;-37
2022/03/08 04:46:03;;;;;;;5.78;3.17;;;;;;;-0.05;60.26;99256.38;5029931;28;20045;-37
2022/03/08 04:48:29;;;;;;;5.72;3.10;;;;;;;-0.10;60.21;99248.72;5030169;28;20056;-37
2022/03/08 04:50:54;;;;;;;6.68;3.58;;;;;;;-0.04;60.34;99273.41;5028561;28;20042;-37
2022/03/08 04:53:20;;;;;;;6.65;3.42;;;;;;;-0.03;59.97;99273.44;5029466;28;20051;-38
2022/03/08 04:55:45;;;;;;;5.55;3.30;;;;;;;-0.03;59.73;99270.03;5029680;28;20042;-39
2022/03/08 04:58:11;;;;;;;6.55;3.20;;;;;;;-0.16;59.99;99253.00;5029780;28;20049;-37
2022/03/08 05:00:37;;;;;;;6.88;3.65;;;;;;;-0.01;59.75;99284.53;5030123;28;20088;-37
2022/03/08 05:03:03;;;;;;;6.88;3.40;;;;;;;-0.11;59.44;99259.81;5030061;28;20047;-37
2022/03/08 05:05:31;;;;;;;7.32;3.30;;;;;;;-0.01;59.69;99287.06;5033463;28;20128;-38
2022/03/08 05:07:56;;;;;;;7.90;3.40;;;;;;;0.02;59.63;99285.34;5031938;28;20049;-38
2022/03/08 05:10:22;;;;;;;9.63;4.05;;;;;;;0.05;59.55;99281.13;5032911;28;20051;-37
2022/03/08 05:12:48;;;;;;;11.10;4.78;;;;;;;0.08;59.17;99287.94;5032237;28;20037;-38
2022/03/08 05:15:14;;;;;;;9.30;4.25;;;;;;;0.07;59.50;99288.78;5033370;28;20053;-37
2022/03/08 05:17:39;;;;;;;7.68;4.05;;;;;;;0.02;59.38;99281.09;5032594;28;20497;-39
2022/03/08 05:20:06;;;;;;;8.50;4.22;;;;;;;0.14;59.38;99300.72;5033116;28;20055;-37
2022/03/08 05:22:32;;;;;;;6.97;3.60;;;;;;;0.19;59.02;99291.34;5032902;28;20048;-37
2022/03/08 05:24:57;;;;;;;7.22;3.67;;;;;;;0.24;58.81;99303.28;5032782;28;20413;-38
2022/03/08 05:27:23;;;;;;;8.68;4.20;;;;;;;0.25;59.07;99307.56;5032831;28;20048;-38
2022/03/08 05:29:49;;;;;;;9.25;3.80;;;;;;;0.28;58.94;99315.22;5032606;28;20125;-38
2022/03/08 05:32:14;;;;;;;6.30;3.28;;;;;;;0.28;58.90;99309.25;5032845;28;20416;-38
2022/03/08 05:34:41;;;;;;;8.85;3.25;;;;;;;0.28;58.75;99307.53;5032952;28;20049;-38
2022/03/08 05:37:07;;;;;;;8.57;3.47;;;;;;;0.29;58.70;99305.84;5032508;28;20045;-38
2022/03/08 05:39:32;;;;;;;6.07;3.17;;;;;;;0.30;58.61;99308.41;5032413;28;20037;-38
2022/03/08 05:41:58;;;;;;;6.85;3.65;;;;;;;0.12;58.87;99282.81;5032422;28;20050;-39
2022/03/08 05:44:24;;;;;;;6.10;3.00;;;;;;;0.33;59.00;99323.72;5032590;28;20199;-38
2022/03/08 05:46:50;;;;;;;8.30;3.65;;;;;;;0.34;58.82;99319.47;5032222;28;20049;-37
2022/03/08 05:49:16;;;;;;;5.85;3.17;;;;;;;0.38;58.60;99324.59;5029096;28;20041;-37
2022/03/08 05:51:43;;;;;;;8.80;3.05;;;;;;;0.40;58.73;99325.44;5032203;28;20041;-38
2022/03/08 05:54:09;;;;;;;6.18;2.90;;;;;;;0.46;58.20;99329.72;5032444;28;20421;-38
2022/03/08 05:56:35;;;;;;;6.18;3.00;;;;;;;0.51;58.49;99328.00;5032147;28;20043;-38
2022/03/08 05:59:01;;;;;;;4.85;3.03;;;;;;;0.59;58.34;99330.56;5030981;28;20042;-38
2022/03/08 06:01:26;;;;;;;21.20;4.00;;;;;;;0.66;57.64;99334.84;5024168;28;20046;-38
2022/03/08 06:03:52;;;;;;;9.05;3.20;;;;;;;0.71;57.83;99339.09;5031012;28;20037;-38
2022/03/08 06:06:17;;;;;;;6.38;2.85;;;;;;;0.73;57.76;99344.22;5031990;28;20068;-38
2022/03/08 06:08:43;;;;;;;4.38;2.70;;;;;;;0.75;57.21;99347.59;5032178;28;20429;-37
2022/03/08 06:11:09;;;;;;;5.05;2.50;;;;;;;0.75;57.20;99351.03;5032134;28;20135;-37
2022/03/08 06:13:34;;;;;;;5.93;2.90;;;;;;;0.76;57.18;99357.00;5032118;28;20042;-38
2022/03/08 06:16:00;;;;;;;5.60;3.13;;;;;;;0.83;56.96;99363.81;5012354;28;20711;-37
2022/03/08 06:18:26;;;;;;;4.97;2.80;;;;;;;0.84;56.89;99355.28;5030388;28;20041;-37
2022/03/08 06:20:51;;;;;;;7.65;2.67;;;;;;;0.88;56.64;99369.78;5030738;28;20041;-38
2022/03/08 06:23:17;;;;;;;7.45;3.55;;;;;;;0.92;57.05;99362.94;5030044;28;20045;-38
2022/03/08 06:25:43;;;;;;;5.55;2.85;;;;;;;0.93;56.85;99365.53;5030723;28;20045;-38
2022/03/08 06:28:09;;;;;;;7.07;2.83;;;;;;;0.99;56.15;99362.97;5030118;28;20503;-38
2022/03/08 06:30:35;;;;;;;5.85;2.65;;;;;;;1.04;55.73;99381.72;5030352;28;20037;-38
2022/03/08 06:33:00;;;;;;;5.53;3.08;;;;;;;1.10;55.25;99380.88;5031664;28;20069;-37
2022/03/08 06:35:26;;;;;;;5.50;3.25;;;;;;;1.15;55.24;99386.81;5031989;28;20041;-39
2022/03/08 06:37:52;;;;;;;5.45;2.67;;;;;;;1.07;55.18;99374.03;5030336;28;20136;-38
2022/03/08 06:40:18;;;;;;;7.15;3.35;;;;;;;1.22;54.98;99403.88;5030514;28;20045;-37
2022/03/08 06:42:43;;;;;;;5.22;2.55;;;;;;;1.32;54.79;99404.69;5030162;28;20045;-38
2022/03/08 06:45:10;;;;;;;4.70;2.80;;;;;;;1.35;54.72;99403.00;5031809;28;20052;-38
2022/03/08 06:47:38;;;;;;;5.25;2.95;;;;;;;1.37;54.13;99408.09;5030069;28;20424;-37
2022/03/08 06:50:05;;;;;;;6.38;3.15;;;;;;;1.37;54.11;99405.53;5030100;28;20044;-39
2022/03/08 06:52:31;;;;;;;5.65;2.65;;;;;;;1.30;53.97;99401.31;5030913;28;20527;-37
2022/03/08 06:54:56;;;;;;;5.60;3.05;;;;;;;1.28;54.11;99412.41;5030486;28;20033;-37
2022/03/08 06:57:22;;;;;;;5.13;2.83;;;;;;;1.25;53.97;99414.97;5031491;28;20045;-38
2022/03/08 06:59:48;;;;;;;4.22;2.47;;;;;;;1.30;53.38;99414.97;5030981;28;20536;-37
2022/03/08 07:02:13;;;;;;;4.13;2.60;;;;;;;1.36;53.39;99408.97;5030634;28;20421;-37
2022/03/08 07:04:39;;;;;;;5.32;2.95;;;;;;;1.42;52.97;99412.38;5028852;28;20060;-38
2022/03/08 07:07:05;;;;;;;3.95;2.20;;;;;;;1.47;52.67;99418.31;5029976;28;20477;-39
2022/03/08 07:09:32;;;;;;;6.03;2.80;;;;;;;1.58;52.52;99414.03;5030135;28;20049;-37
2022/03/08 07:11:59;;;;;;;6.57;2.75;;;;;;;1.48;52.70;99389.31;5031031;28;20037;-37
2022/03/08 07:14:25;;;;;;;4.88;2.40;;;;;;;1.65;52.40;99415.72;5030601;28;20538;-37
2022/03/08 07:16:50;;;;;;;5.25;2.88;;;;;;;1.60;52.17;99399.53;5030253;28;20049;-38
2022/03/08 07:19:16;;;;;;;7.80;3.50;;;;;;;1.77;52.16;99424.25;5039058;28;20077;-38
2022/03/08 07:21:42;;;;;;;7.38;3.00;;;;;;;1.77;51.66;99419.13;5039607;28;20037;-37
2022/03/08 07:24:08;;;;;;;5.85;2.60;;;;;;;1.78;51.27;99428.53;5031214;28;20033;-38
2022/03/08 07:26:34;;;;;;;6.97;3.20;;;;;;;1.69;51.27;99409.72;5029501;28;20068;-39
2022/03/08 07:29:00;;;;;;;6.72;3.45;;;;;;;1.70;51.13;99424.25;5028168;28;20517;-37
2022/03/08 07:31:25;;;;;;;6.40;3.90;;;;;;;1.67;51.04;99426.81;5029487;28;20052;-38
2022/03/08 07:33:51;;;;;;;6.18;3.70;;;;;;;1.64;51.03;99420.84;5061581;28;20053;-38
2022/03/08 07:36:17;;;;;;;6.22;3.35;;;;;;;1.72;50.86;99439.63;5030687;28;20045;-37
2022/03/08 07:38:43;;;;;;;7.35;3.45;;;;;;;1.74;50.57;99448.16;5030901;28;20159;-38
2022/03/08 07:41:09;;;;;;;6.15;3.40;;;;;;;1.73;50.69;99448.19;5029498;28;20171;-37
2022/03/08 07:43:35;;;;;;;4.90;3.17;;;;;;;1.78;51.21;99439.59;5022829;28;20041;-37
2022/03/08 07:46:06;;;;;;;6.68;4.32;;;;;;;1.79;50.91;99437.88;5025621;28;20053;-37
2022/03/08 07:48:32;;;;;;;8.73;5.53;;;;;;;1.94;50.53;99451.50;5029154;28;20041;-38
2022/03/08 07:50:58;;;;;;;10.57;3.75;;;;;;;1.96;50.22;99443.81;5046087;28;20044;-40
2022/03/08 07:53:24;;;;;;;5.75;3.47;;;;;;;2.06;49.91;99455.75;5030100;28;20042;-38
2022/03/08 07:55:49;;;;;;;7.40;3.10;;;;;;;2.01;49.80;99455.75;5028388;28;20050;-38
2022/03/08 07:58:15;;;;;;;6.05;3.10;;;;;;;2.01;49.79;99462.59;5045172;28;20092;-39
2022/03/08 08:00:41;;;;;;;6.07;3.70;;;;;;;1.88;50.02;99460.94;5024351;28;20041;-38
2022/03/08 08:03:08;;;;;;;6.22;3.42;;;;;;;1.86;50.19;99467.78;5029946;28;20045;-39
2022/03/08 08:05:35;;;;;;;7.95;4.22;;;;;;;1.86;49.70;99454.97;5029933;28;20045;-38
2022/03/08 08:08:01;;;;;;;12.50;3.50;;;;;;;1.78;49.79;99452.41;5027123;28;20123;-39
2022/03/08 08:10:27;;;;;;;10.07;3.97;;;;;;;1.89;49.70;99462.63;5029912;28;20037;-38
2022/03/08 08:12:53;;;;;;;5.13;3.03;;;;;;;1.84;49.83;99472.91;5012172;28;20033;-40
2022/03/08 08:15:19;;;;;;;5.95;3.33;;;;;;;1.79;49.33;99458.38;5030104;28;20033;-39
2022/03/08 08:17:44;;;;;;;6.63;3.20;;;;;;;1.93;49.38;99469.47;5027790;28;20457;-38
2022/03/08 08:20:10;;;;;;;5.25;3.70;;;;;;;2.00;48.73;99471.13;5012303;28;20052;-39
2022/03/08 08:22:36;;;;;;;10.73;3.40;;;;;;;1.98;48.96;99475.44;5029370;28;20099;-38
2022/03/08 08:25:03;;;;;;;7.43;3.58;;;;;;;1.79;48.96;99448.13;5030371;28;20129;-38
2022/03/08 08:27:29;;;;;;;6.63;3.38;;;;;;;1.90;48.75;99480.56;5033259;28;20045;-39
2022/03/08 08:29:55;;;;;;;6.47;3.88;;;;;;;1.92;49.12;99491.69;5028797;28;20048;-37
2022/03/08 08:32:20;;;;;;;6.88;3.75;;;;;;;1.97;48.79;99494.22;5025452;28;20056;-39
2022/03/08 08:34:46;;;;;;;5.63;3.47;;;;;;;2.00;48.88;99500.19;5006436;28;20135;-38
2022/03/08 08:37:12;;;;;;;4.68;2.67;;;;;;;2.02;48.47;99495.94;5029925;28;20056;-38
2022/03/08 08:39:39;;;;;;;5.88;3.05;;;;;;;2.06;48.22;99501.88;5046426;28;20044;-38
2022/03/08 08:42:05;;;;;;;3.88;2.60;;;;;;;1.94;47.72;99478.84;5041825;28;20041;-38
2022/03/08 08:44:30;;;;;;;5.60;3.00;;;;;;;2.13;48.20;99496.75;5044662;28;20049;-37
2022/03/08 08:46:56;;;;;;;6.28;3.00;;;;;;;2.19;47.40;99498.44;5048005;28;20127;-38
2022/03/08 08:49:23;;;;;;;5.80;3.15;;;;;;;2.17;47.49;99509.53;5027237;28;20069;-38
2022/03/08 08:51:49;;;;;;;7.00;3.10;;;;;;;2.19;47.35;99512.97;5031249;28;20046;-38
2022/03/08 08:54:16;;;;;;;5.57;3.20;;;;;;;2.22;46.86;99510.38;5033232;28;20041;-38
2022/03/08 08:56:41;;;;;;;4.00;2.72;;;;;;;2.13;46.98;99501.03;5014450;28;20137;-37
2022/03/08 09:01:51;;;;;;;8.63;3.85;;;;;;;2.28;47.09;99523.19;5030345;28;20037;-38
2022/03/08 09:04:17;;;;;;;6.47;3.00;;;;;;;2.28;47.28;99521.47;5026834;28;20038;-38
2022/03/08 09:06:43;;;;;;;7.10;3.42;;;;;;;2.17;47.18;99527.50;5031704;28;20080;-37
2022/03/08 09:09:09;;;;;;;7.25;3.78;;;;;;;2.06;47.36;99533.50;5029600;28;20144;-38
2022/03/08 09:11:53;;;;;;;6.40;3.30;;;;;;;2.05;47.16;99530.94;5033492;28;20171;-38
2022/03/08 09:14:19;;;;;;;6.28;3.67;;;;;;;2.09;47.11;99530.94;5029845;28;20481;-38
2022/03/08 09:16:45;;;;;;;6.25;3.30;;;;;;;2.16;46.82;99530.91;5047631;28;20543;-38
2022/03/08 09:19:11;;;;;;;7.75;3.47;;;;;;;2.17;46.50;99519.81;5026920;28;20049;-38
2022/03/08 09:21:37;;;;;;;6.22;2.90;;;;;;;2.42;46.53;99526.53;5030858;28;20483;-38
2022/03/08 09:24:04;;;;;;;4.95;3.08;;;;;;;2.50;46.04;99527.38;5031219;28;20406;-37
2022/03/08 09:26:29;;;;;;;7.60;3.03;;;;;;;2.66;46.08;99533.28;5032955;28;20095;-39
2022/03/08 09:28:55;;;;;;;6.43;3.08;;;;;;;2.74;45.91;99531.53;5031519;28;20456;-38
2022/03/08 09:31:21;;;;;;;5.85;2.88;;;;;;;2.82;45.57;99537.50;5027482;28;20046;-39
2022/03/08 09:33:46;;;;;;;4.15;2.88;;;;;;;2.72;45.33;99521.25;5029734;28;20053;-38
2022/03/08 09:36:12;;;;;;;5.38;3.13;;;;;;;2.83;45.86;99539.16;5027625;28;20061;-39
2022/03/08 09:38:38;;;;;;;5.47;3.25;;;;;;;2.82;45.84;99546.03;5032217;28;20068;-39
2022/03/08 09:41:05;;;;;;;5.22;3.25;;;;;;;2.86;45.63;99541.72;5031028;28;20033;-38
2022/03/08 09:43:35;;;;;;;5.72;3.00;;;;;;;2.81;45.28;99540.91;5031104;28;20120;-43
2022/03/08 09:46:00;;;;;;;5.35;3.20;;;;;;;2.70;45.40;99543.53;5032349;28;20239;-37
2022/03/08 09:48:26;;;;;;;5.65;2.92;;;;;;;2.59;45.50;99550.44;5031914;28;20132;-38
2022/03/08 09:50:52;;;;;;;7.38;3.83;;;;;;;2.47;45.88;99553.03;5031984;28;20037;-38
2022/03/08 09:53:18;;;;;;;7.03;3.72;;;;;;;2.42;46.17;99562.47;5047830;28;20037;-38
2022/03/08 09:55:43;;;;;;;4.50;3.15;;;;;;;2.34;45.93;99559.94;5032200;28;20037;-37
2022/03/08 09:58:09;;;;;;;7.88;3.70;;;;;;;2.16;46.22;99549.72;5031569;28;20041;-38
2022/03/08 10:00:35;;;;;;;5.38;2.38;;;;;;;2.22;46.55;99561.66;5031760;28;20183;-38
2022/03/08 10:03:01;;;;;;;4.70;2.60;;;;;;;1.99;46.39;99531.81;5031912;28;20080;-38
2022/03/08 10:05:29;;;;;;;5.93;2.97;;;;;;;2.21;46.15;99558.25;5031549;28;20037;-38
2022/03/08 10:08:10;;;;;;;7.40;3.90;;;;;;;2.29;46.45;99553.13;5031800;28;20431;-39
2022/03/08 10:11:06;;;;;;;4.57;2.95;;;;;;;2.32;46.04;99560.78;5040955;28;20532;-39
2022/03/08 10:13:53;;;;;;;5.78;3.00;;;;;;;2.32;46.23;99566.78;5024806;28;20042;-38
2022/03/08 10:16:26;;;;;;;5.65;2.97;;;;;;;2.32;46.11;99571.03;5016954;28;20155;-38
2022/03/08 10:19:02;;;;;;;6.30;2.88;;;;;;;2.31;46.10;99569.34;5012661;28;20088;-38
2022/03/08 10:21:34;;;;;;;5.20;2.90;;;;;;;2.33;46.06;99563.34;5011961;28;20042;-39
2022/03/08 10:24:15;;;;;;;8.38;3.30;;;;;;;2.49;46.00;99574.41;5015261;28;20042;-38
2022/03/08 10:26:51;;;;;;;6.80;3.42;;;;;;;2.64;45.66;99574.34;5021257;28;20048;-37
2022/03/08 10:29:33;;;;;;;5.60;3.28;;;;;;;2.66;45.75;99580.34;5017352;28;20073;-38
2022/03/08 10:32:19;;;;;;;6.32;3.15;;;;;;;2.64;45.79;99582.06;5019526;28;20064;-38
2022/03/08 10:35:01;;;;;;;6.75;3.03;;;;;;;2.69;45.62;99572.63;5017869;28;20044;-38
2022/03/08 10:37:35;;;;;;;5.07;2.80;;;;;;;2.67;45.75;99576.88;5023979;28;20061;-38
2022/03/08 10:40:04;;;;;;;4.22;2.53;;;;;;;2.67;45.56;99571.75;5024517;28;20041;-38
2022/03/08 10:42:33;;;;;;;5.30;2.65;;;;;;;2.67;45.96;99576.88;5027154;28;20064;-39
2022/03/08 10:45:08;;;;;;;4.13;2.60;;;;;;;2.66;45.58;99575.22;5010562;28;20052;-43
2022/03/08 10:47:45;;;;;;;5.82;3.00;;;;;;;2.78;45.59;99576.84;5017327;28;20128;-39
2022/03/08 10:50:14;;;;;;;8.80;3.60;;;;;;;3.03;45.14;99570.75;5026882;28;20045;-37
2022/03/08 10:52:41;;;;;;;7.72;3.45;;;;;;;3.18;45.11;99573.22;5010404;28;20543;-38
2022/03/08 10:55:21;;;;;;;4.25;2.42;;;;;;;3.25;44.91;99579.13;5023959;28;20138;-37
2022/03/08 10:57:54;;;;;;;4.50;2.55;;;;;;;3.26;44.54;99579.13;5021635;28;20037;-39
2022/03/08 11:00:25;;;;;;;5.95;2.90;;;;;;;3.15;44.00;99551.81;5036174;28;20038;-37
2022/03/08 11:03:02;;;;;;;4.75;2.80;;;;;;;3.29;43.93;99579.13;5026025;28;20194;-38
2022/03/08 11:05:30;;;;;;;5.43;2.80;;;;;;;3.42;43.92;99582.47;5024782;28;20093;-37
2022/03/08 11:07:57;;;;;;;6.93;3.78;;;;;;;3.60;43.97;99579.75;5025251;28;20049;-38
2022/03/08 11:10:24;;;;;;;4.43;2.85;;;;;;;3.65;43.85;99580.56;5026981;28;20405;-38
2022/03/08 11:12:50;;;;;;;4.55;3.15;;;;;;;3.61;43.88;99580.63;5021157;28;20037;-38
2022/03/08 11:15:18;;;;;;;5.07;2.80;;;;;;;3.74;43.95;99577.06;5022472;28;20049;-38
2022/03/08 11:17:46;;;;;;;6.00;3.65;;;;;;;3.96;44.13;99580.28;5021324;28;20045;-37
2022/03/08 11:20:14;;;;;;;5.10;2.87;;;;;;;4.03;44.23;99587.09;5028396;28;20048;-37
2022/03/08 11:22:40;;;;;;;5.82;3.10;;;;;;;4.08;44.49;99586.16;5020157;28;20046;-37
2022/03/08 11:25:11;;;;;;;7.18;3.58;;;;;;;4.11;45.05;99590.44;5025004;28;20136;-37
2022/03/08 11:27:39;;;;;;;6.35;3.60;;;;;;;4.38;44.95;99584.16;5025188;28;20501;-38
2022/03/08 11:30:06;;;;;;;6.07;3.17;;;;;;;4.79;44.14;99589.66;5022394;28;20425;-38
2022/03/08 11:32:39;;;;;;;4.97;3.15;;;;;;;4.68;44.47;99587.22;5030150;28;20088;-38
2022/03/08 11:35:30;;;;;;;7.05;3.40;;;;;;;4.52;44.48;99582.28;5023650;28;20246;-39
2022/03/08 11:37:56;;;;;;;6.32;3.63;;;;;;;4.20;44.60;99586.03;5024036;28;20434;-37
2022/03/08 11:40:23;;;;;;;7.72;3.72;;;;;;;4.00;45.38;99593.09;5021821;28;20033;-38